Nearby METAR Reports

 

KGIF - Winter Haven, Florida, USA
Distance from station: SW 11mi, 18km
Updated: Wed, 18-May-2022 6:53pm EDT
Nearby thunderstorm, Few clouds
Nearby thunderstorm, Few clouds
 Wind from W
Wind: W 9 mph , 15 km/h
Temperature: 88°F , 31°C
Heat Index: 92°F , 33°C
Dew Point: 68°F , 20°C
Humidity: 52%
Barometer: 29.97 inHg , 1014.9 hPa
Summary: Nearby Thunderstorm
Clouds: Few Clouds
Visibility: 10 miles , 16 km
Cloud details: Few Clouds 7000 ft
2022/05/18 22:53 KGIF 182253Z AUTO 27008KT 10SM VCTS FEW070 31/20 A2997 RMK AO2 LTG DSNT N AND E SLP145 T03060200
KISM - Kissimmee/Orland, Florida, USA
Distance from station: NE 13mi, 22km
Updated: Wed, 18-May-2022 7:25pm EDT
Overcast
Overcast
 Wind from WNW
Wind: WNW 5 mph , 7 km/h
Temperature: 82°F , 28°C
Heat Index: 86°F , 30°C
Dew Point: 72°F , 22°C
Humidity: 70%
Barometer: 29.98 inHg , 1015.2 hPa
Clouds: Overcast
Visibility: 10 miles , 16 km
Cloud details: Overcast 6000 ft
2022/05/18 23:25 KISM 182325Z 30004KT 10SM OVC060 28/22 A2998 RMK AO2 LTG DSNT S-NW TSE19RAE04 PNO $
 
KBOW - Bartow Municipal, Florida, USA
Distance from station: SSW 19mi, 31km
Updated: Wed, 18-May-2022 7:35pm EDT
Mostly cloudy
Mostly cloudy
 Wind from WNW
Wind: WNW 8 mph , 13 km/h
Temperature: 86°F , 30°C
Heat Index: 91°F , 33°C
Dew Point: 70°F , 21°C
Humidity: 59%
Barometer: 29.98 inHg , 1015.2 hPa
Clouds: Mostly cloudy
Visibility: 10 miles , 16 km
Cloud details: Mostly cloudy 6500 ft
2022/05/18 23:35 KBOW 182335Z AUTO 30007KT 10SM BKN065 30/21 A2998 RMK AO2 LTG DSNT N-SE
KMCO - Orlando, Florida, USA
Distance from station: NE 24mi, 39km
Updated: Wed, 18-May-2022 6:53pm EDT
Mostly cloudy
Mostly cloudy
 Wind from E
Wind: E 7 mph , 11 km/h
Temperature: 81°F , 27°C
Heat Index: 85°F , 29°C
Dew Point: 70°F , 21°C
Humidity: 70%
Barometer: 29.97 inHg , 1014.9 hPa
Clouds: Mostly cloudy
Visibility: 10 miles , 16 km
Cloud details: Few Clouds 4000 ft
Partly cloudy 6500 ft
Partly cloudy 13000 ft
Mostly cloudy 25000 ft
2022/05/18 22:53 KMCO 182253Z 10006KT 10SM FEW040 SCT065 SCT130 BKN250 27/21 A2997 RMK AO2 LTG DSNT SW-NW SLP146 CB DSNT W-NW T02720206 $
 
KLAL - Lakeland Regiona, Florida, USA
Distance from station: WSW 28mi, 46km
Updated: Wed, 18-May-2022 6:50pm EDT
Few Clouds
Few Clouds
 Wind from W
Wind: W 7 mph , 11 km/h
Temperature: 82°F , 28°C
Heat Index: 85°F , 29°C
Dew Point: 68°F , 20°C
Humidity: 62%
Barometer: 29.98 inHg , 1015.2 hPa
Clouds: Few Clouds
Visibility: 10 miles , 16 km
Cloud details: Few Clouds 5000 ft
2022/05/18 22:50 KLAL 182250Z 27006KT 10SM FEW050 28/20 A2998
KORL - Orlando, Florida, USA
Distance from station: NNE 31mi, 50km
Updated: Wed, 18-May-2022 6:53am EDT
NOT Current
Clear
Clear
 Wind from WNW
Wind: WNW 3 mph , 6 km/h
Temperature: 77°F , 25°C
Dew Point: 72°F , 22°C
Humidity: 83%
Barometer: 30.01 inHg , 1016.3 hPa
Clouds: Clear
Visibility: 10 miles , 16 km
2022/05/18 10:53 KORL 181053Z 29003KT 10SM CLR 25/22 A3001 RMK AO2 SLP163 T02500222
 
KZPH - Zephyrhills, Florida, USA
Distance from station: W 33mi, 53km
Updated: Wed, 18-May-2022 7:15pm EDT
Clear
Clear
 Wind from W
Wind: W 13 mph , 20 km/h
Temperature: 86°F , 30°C
Heat Index: 92°F , 33°C
Dew Point: 72°F , 22°C
Humidity: 62%
Barometer: 29.98 inHg , 1015.2 hPa
Clouds: Clear
Visibility: 10 miles , 16 km
2022/05/18 23:15 KZPH 182315Z AUTO 28011KT 10SM CLR 30/22 A2998 RMK A02 LTG DSNT E AND SE T02970219
KPCM - Plant City Muni, Florida, USA
Distance from station: WSW 36mi, 57km
Updated: Wed, 18-May-2022 7:15pm EDT
Clear
Clear
 Wind from W
Wind: W 5 mph , 7 km/h
Temperature: 86°F , 30°C
Heat Index: 88°F , 31°C
Dew Point: 66°F , 19°C
Humidity: 52%
Barometer: 29.99 inHg , 1015.6 hPa
Clouds: Clear
Visibility: 10 miles , 16 km
2022/05/18 23:15 KPCM 182315Z AUTO 28004KT 10SM CLR 30/19 A2999 RMK AO2
 
KVDF - Tampa/Vandenburg, Florida, USA
Distance from station: WSW 45mi, 73km
Updated: Wed, 18-May-2022 7:35pm EDT
Clear
Clear
 Wind from WNW
Wind: WNW 3 mph , 6 km/h
Temperature: 86°F , 30°C
Heat Index: 92°F , 33°C
Dew Point: 72°F , 22°C
Humidity: 62%
Barometer: 29.97 inHg , 1014.9 hPa
Clouds: Clear
Visibility: 10 miles , 16 km
2022/05/18 23:35 KVDF 182335Z AUTO 29003KT 10SM CLR 30/22 A2997 RMK AO2
KLEE - Leesburg, Florida, USA
Distance from station: NNW 46mi, 74km
Updated: Wed, 18-May-2022 7:23pm EDT
Thunderstorm, Overcast
Thunderstorm, Overcast
 Wind from WNW
Wind: WNW 7 mph , 11 km/h
Temperature: 84°F , 29°C
Heat Index: 88°F , 31°C
Dew Point: 70°F , 21°C
Humidity: 62%
Barometer: 29.99 inHg , 1015.6 hPa
Summary: Thunderstorm
Clouds: Overcast
Visibility: 10 miles , 16 km
Cloud details: Mostly cloudy 4400 ft
Overcast 7000 ft
2022/05/18 23:23 KLEE 182323Z AUTO 30006KT 10SM TS BKN044 OVC070 29/21 A2999 RMK AO2 LTG DSNT N AND S TSB17 T02940211
 
KSFB - Sanford/Orlando, Florida, USA
Distance from station: NNE 47mi, 76km
Updated: Wed, 18-May-2022 6:53pm EDT
Clear
Clear
 Wind from E
Wind: E 10 mph , 17 km/h
Temperature: 86°F , 30°C
Heat Index: 92°F , 33°C
Dew Point: 72°F , 22°C
Humidity: 62%
Barometer: 29.96 inHg , 1014.6 hPa
Clouds: Clear
Visibility: 10 miles , 16 km
2022/05/18 22:53 KSFB 182253Z 09009KT 10SM CLR 30/22 A2996 RMK AO2 LTG DSNT SW SLP144 T03000217